Newman, Illinois
Current Conditions -  °F | °C
As of 10:15 AM on Friday 24 Oct 2014 (Local Time) from KPRG Reporting Station
Overcast Overcast  
Wind Chill: 58°   Ceiling: 2200
Heat Index: 58°   Visibility: 10mi
Dew Point: 50°   Wind: 0mph
Humidity: 76%   Direction: NA
Pressure: 30.11"   Gusts: NA
Location:  39.8°N, 87.99°W
Report Text: KPRG 241515Z AUTO 00000KT 10SM OVC022 14/10 A3011 RMK AO2 T01420100
Loading
Personal Weather Stations






























Interactive Weather Map
Tropical Storm Tracking
New forecast layout! Learn more

10-Day Weather Forecast

Advertisements
Track Severe Weather on mobile